createdAt,value
2022-08-05T00:01:48.278Z,6.03
2022-08-05T00:04:19.742Z,5.63
2022-08-05T00:06:51.916Z,6.60
2022-08-05T00:09:20.245Z,6.78
2022-08-05T00:11:55.340Z,6.90
2022-08-05T00:14:27.702Z,6.20
2022-08-05T00:16:57.785Z,6.93
2022-08-05T00:19:33.673Z,7.00
2022-08-05T00:22:13.346Z,6.00
2022-08-05T00:24:42.283Z,5.40
2022-08-05T00:27:16.558Z,6.13
2022-08-05T00:29:45.436Z,5.55
2022-08-05T00:32:15.349Z,5.63
2022-08-05T00:35:05.245Z,6.03
2022-08-05T00:37:50.420Z,5.97
2022-08-05T00:40:26.790Z,6.20
2022-08-05T00:42:58.698Z,6.65
2022-08-05T00:45:37.829Z,5.57
2022-08-05T00:48:09.252Z,5.73
2022-08-05T00:50:38.934Z,5.85
2022-08-05T00:53:59.858Z,5.80
2022-08-05T00:55:57.188Z,4.97
2022-08-05T00:58:27.657Z,5.32
2022-08-05T01:00:55.852Z,5.30
2022-08-05T01:03:24.365Z,5.18
2022-08-05T01:05:58.734Z,4.70
2022-08-05T01:08:41.180Z,5.82
2022-08-05T01:11:21.729Z,4.97
2022-08-05T01:14:11.806Z,4.90
2022-08-05T01:17:17.425Z,4.65
2022-08-05T01:20:09.611Z,4.53
2022-08-05T01:22:57.805Z,5.00
2022-08-05T01:25:54.021Z,5.40
2022-08-05T01:28:42.563Z,4.80
2022-08-05T01:31:16.771Z,5.03
2022-08-05T01:34:04.969Z,5.03
2022-08-05T01:36:47.063Z,4.40
2022-08-05T01:39:45.780Z,4.90
2022-08-05T01:42:12.373Z,4.57
2022-08-05T01:44:54.228Z,4.50
2022-08-05T01:47:24.673Z,4.30
2022-08-05T01:50:18.715Z,4.63
2022-08-05T01:53:02.297Z,4.70
2022-08-05T01:55:36.342Z,5.10
2022-08-05T01:58:12.867Z,5.07
2022-08-05T02:00:50.269Z,5.07
2022-08-05T02:03:38.991Z,4.88
2022-08-05T02:06:33.881Z,5.15
2022-08-05T02:08:59.026Z,4.68
2022-08-05T02:11:37.565Z,5.00
2022-08-05T02:14:20.854Z,5.40
2022-08-05T02:16:54.391Z,5.25
2022-08-05T02:19:28.171Z,4.68
2022-08-05T02:22:25.822Z,5.05
2022-08-05T02:25:08.359Z,5.25
2022-08-05T02:27:59.382Z,5.30
2022-08-05T02:30:54.598Z,6.00
2022-08-05T02:33:36.133Z,6.35
2022-08-05T02:36:13.564Z,6.53
2022-08-05T02:38:53.356Z,6.38
2022-08-05T02:41:29.010Z,6.47
2022-08-05T02:44:13.844Z,5.95
2022-08-05T02:46:58.298Z,6.05
2022-08-05T02:49:37.887Z,5.97
2022-08-05T02:52:30.201Z,6.32
2022-08-05T02:55:05.562Z,6.60
2022-08-05T02:58:11.485Z,6.30
2022-08-05T03:00:29.554Z,5.93
2022-08-05T03:02:59.157Z,5.72
2022-08-05T03:06:55.670Z,5.43
2022-08-05T03:08:17.023Z,7.32
2022-08-05T03:11:53.165Z,7.00
2022-08-05T03:13:52.198Z,6.70
2022-08-05T03:16:29.901Z,7.20
2022-08-05T03:19:01.414Z,6.55
2022-08-05T03:21:41.706Z,8.05
2022-08-05T03:24:26.856Z,7.22
2022-08-05T03:27:01.211Z,7.28
2022-08-05T03:29:45.120Z,7.43
2022-08-05T03:32:19.508Z,8.05
2022-08-05T03:34:51.302Z,8.27
2022-08-05T03:37:23.495Z,7.78
2022-08-05T03:40:01.202Z,7.68
2022-08-05T03:42:32.127Z,7.22
2022-08-05T03:45:01.832Z,7.38
2022-08-05T03:47:49.349Z,6.75
2022-08-05T03:50:17.220Z,7.20
2022-08-05T03:55:00.017Z,7.43
2022-08-05T03:56:11.922Z,7.30
2022-08-05T03:58:46.062Z,7.80
2022-08-05T04:01:20.885Z,7.63
2022-08-05T04:03:56.898Z,6.97
2022-08-05T04:06:37.953Z,8.30
2022-08-05T04:09:06.625Z,7.47
2022-08-05T04:11:50.454Z,7.25
2022-08-05T04:14:29.400Z,7.65
2022-08-05T04:17:00.699Z,8.10
2022-08-05T04:19:29.659Z,8.00
2022-08-05T04:22:09.131Z,8.70
2022-08-05T04:24:52.623Z,10.02
2022-08-05T04:27:33.240Z,9.67
2022-08-05T04:30:09.930Z,8.80
2022-08-05T04:32:38.032Z,8.30
2022-08-05T04:35:07.771Z,8.18
2022-08-05T04:38:01.061Z,7.20
2022-08-05T04:40:37.838Z,7.65
2022-08-05T04:43:16.318Z,7.75
2022-08-05T04:45:48.792Z,7.95
2022-08-05T04:48:27.354Z,7.95
2022-08-05T04:51:03.304Z,7.97
2022-08-05T04:56:32.832Z,7.07
2022-08-05T04:58:56.948Z,7.13
2022-08-05T05:01:59.644Z,7.45
2022-08-05T05:04:12.625Z,7.18
2022-08-05T05:06:49.393Z,7.22
2022-08-05T05:09:24.971Z,7.57
2022-08-05T05:11:56.834Z,7.30
2022-08-05T05:14:32.058Z,7.18
2022-08-05T05:17:00.664Z,8.15
2022-08-05T05:19:36.496Z,7.00
2022-08-05T05:22:23.510Z,7.45
2022-08-05T05:25:00.143Z,7.85
2022-08-05T05:27:44.866Z,7.95
2022-08-05T05:30:31.341Z,8.10
2022-08-05T05:33:16.001Z,7.43
2022-08-05T05:35:46.997Z,7.93
2022-08-05T05:38:22.649Z,8.32
2022-08-05T05:40:56.471Z,7.72
2022-08-05T05:43:56.382Z,7.30
2022-08-05T05:46:17.470Z,7.60
2022-08-05T05:48:48.541Z,8.00
2022-08-05T05:51:25.716Z,7.63
2022-08-05T05:53:59.302Z,7.75
2022-08-05T05:56:32.883Z,8.88
2022-08-05T05:59:07.395Z,8.40
2022-08-05T06:01:39.772Z,8.82
2022-08-05T06:04:14.469Z,8.60
2022-08-05T06:06:47.689Z,9.27
2022-08-05T06:09:24.845Z,9.20
2022-08-05T06:12:01.146Z,7.90
2022-08-05T06:14:31.283Z,9.02
2022-08-05T06:17:01.993Z,8.65
2022-08-05T06:19:56.309Z,9.60
2022-08-05T06:22:30.513Z,8.55
2022-08-05T06:25:24.321Z,8.80
2022-08-05T06:28:10.865Z,9.10
2022-08-05T06:30:43.646Z,8.63
2022-08-05T06:33:11.086Z,8.20
2022-08-05T06:36:07.489Z,8.15
2022-08-05T06:38:36.529Z,7.82
2022-08-05T06:41:07.983Z,8.95
2022-08-05T06:43:59.012Z,8.73
2022-08-05T06:46:29.673Z,9.15
2022-08-05T06:49:00.983Z,9.38
2022-08-05T06:51:31.074Z,8.35
2022-08-05T06:54:04.409Z,9.30
2022-08-05T06:56:34.754Z,9.57
2022-08-05T06:59:09.705Z,8.60
2022-08-05T07:01:41.547Z,9.45
2022-08-05T07:04:10.280Z,8.35
2022-08-05T07:06:37.998Z,7.82
2022-08-05T07:09:05.636Z,6.43
2022-08-05T07:11:36.815Z,7.07
2022-08-05T07:14:29.612Z,6.95
2022-08-05T07:18:02.353Z,7.23
2022-08-05T07:20:31.550Z,6.30
2022-08-05T07:22:38.802Z,6.95
2022-08-05T07:25:24.050Z,7.30
2022-08-05T07:27:57.363Z,6.95
2022-08-05T07:30:32.118Z,6.45
2022-08-05T07:33:09.359Z,6.53
2022-08-05T07:36:01.875Z,6.80
2022-08-05T07:38:32.412Z,7.30
2022-08-05T07:42:08.289Z,6.65
2022-08-05T07:44:14.132Z,7.20
2022-08-05T07:46:42.123Z,6.80
2022-08-05T07:49:16.179Z,6.68
2022-08-05T07:51:54.539Z,6.13
2022-08-05T07:54:30.924Z,6.32
2022-08-05T07:57:17.695Z,5.70
2022-08-05T07:59:52.320Z,5.47
2022-08-05T08:02:31.388Z,5.75
2022-08-05T08:05:15.446Z,5.18
2022-08-05T08:07:59.686Z,5.50
2022-08-05T08:10:30.138Z,4.90
2022-08-05T08:12:58.776Z,5.05
2022-08-05T08:16:35.754Z,4.50
2022-08-05T08:18:14.695Z,4.13
2022-08-05T08:21:03.094Z,4.15
2022-08-05T08:24:01.408Z,4.00
2022-08-05T08:26:26.716Z,3.47
2022-08-05T08:29:21.698Z,3.00
2022-08-05T08:31:48.631Z,2.80
2022-08-05T08:34:30.569Z,2.67
2022-08-05T08:37:03.247Z,2.33
2022-08-05T08:39:37.405Z,2.13
2022-08-05T08:42:27.566Z,1.85
2022-08-05T08:45:18.684Z,1.83
2022-08-05T08:48:10.434Z,2.00
2022-08-05T08:51:03.455Z,1.70
2022-08-05T08:53:37.008Z,2.13
2022-08-05T08:56:06.626Z,1.70
2022-08-05T08:58:43.098Z,1.63
2022-08-05T09:01:16.368Z,1.70
2022-08-05T09:03:55.071Z,1.60
2022-08-05T09:06:30.601Z,1.83
2022-08-05T09:09:00.993Z,1.20
2022-08-05T09:11:52.767Z,1.48
2022-08-05T09:14:58.532Z,1.60
2022-08-05T09:17:16.092Z,1.90
2022-08-05T09:20:05.448Z,1.70
2022-08-05T09:23:19.810Z,1.73
2022-08-05T09:26:01.420Z,1.50
2022-08-05T09:28:34.735Z,1.60
2022-08-05T09:31:23.353Z,1.63
2022-08-05T09:33:55.124Z,1.85
2022-08-05T09:36:27.775Z,1.80
2022-08-05T09:39:16.580Z,1.70
2022-08-05T09:42:01.572Z,2.28
2022-08-05T09:44:49.363Z,2.60
2022-08-05T09:47:29.479Z,2.05
2022-08-05T09:50:18.219Z,2.22
2022-08-05T09:53:02.089Z,1.70
2022-08-05T09:55:58.686Z,1.17
2022-08-05T09:58:26.279Z,1.10
2022-08-05T10:01:14.982Z,1.35
2022-08-05T10:04:29.408Z,1.45
2022-08-05T10:06:59.609Z,1.70
2022-08-05T10:12:30.736Z,1.65
2022-08-05T10:15:20.854Z,2.17
2022-08-05T10:18:16.882Z,2.20
2022-08-05T10:20:56.703Z,1.80
2022-08-05T10:23:55.128Z,1.80
2022-08-05T10:26:24.264Z,1.23
2022-08-05T10:28:59.751Z,1.40
2022-08-05T10:32:54.989Z,1.13
2022-08-05T10:34:17.017Z,1.35
2022-08-05T10:36:46.380Z,1.30
2022-08-05T10:39:58.906Z,0.98
2022-08-05T10:42:33.728Z,0.95
2022-08-05T10:45:20.980Z,1.00
2022-08-05T10:48:29.919Z,0.80
2022-08-05T10:51:21.750Z,0.77
2022-08-05T10:53:56.045Z,0.60
2022-08-05T10:56:39.586Z,0.68
2022-08-05T11:00:01.269Z,0.60
2022-08-05T11:02:38.371Z,0.50
2022-08-05T11:05:10.441Z,0.60
2022-08-05T11:08:33.832Z,0.70
2022-08-05T11:11:44.783Z,0.73
2022-08-05T11:14:57.784Z,0.63
2022-08-05T11:17:57.884Z,0.60
2022-08-05T11:20:43.940Z,0.40
2022-08-05T11:23:33.174Z,0.75
2022-08-05T11:26:10.881Z,0.70
2022-08-05T11:28:43.174Z,0.60
2022-08-05T11:31:11.201Z,0.45
2022-08-05T11:33:48.198Z,0.60
2022-08-05T11:36:34.278Z,0.50
2022-08-05T11:39:55.244Z,0.45
2022-08-05T11:42:40.338Z,0.50
2022-08-05T11:46:16.182Z,0.70
2022-08-05T11:48:36.372Z,0.70
2022-08-05T11:51:08.411Z,0.57
2022-08-05T11:53:42.030Z,0.65
2022-08-05T11:56:11.362Z,0.73
2022-08-05T11:58:43.432Z,0.80
2022-08-05T12:01:22.591Z,0.70
2022-08-05T12:03:57.055Z,0.60
2022-08-05T12:06:30.373Z,0.70
2022-08-05T12:08:59.667Z,0.80
2022-08-05T12:11:40.183Z,0.70
2022-08-05T12:14:10.271Z,0.60
2022-08-05T12:16:45.168Z,0.85
2022-08-05T12:20:25.539Z,0.60
2022-08-05T12:22:07.892Z,0.43
2022-08-05T12:24:49.418Z,0.70
2022-08-05T12:27:32.475Z,0.77
2022-08-05T12:30:15.569Z,0.65
2022-08-05T12:32:51.229Z,0.80
2022-08-05T12:35:21.710Z,0.82
2022-08-05T12:37:50.021Z,0.70
2022-08-05T12:40:26.827Z,0.60
2022-08-05T12:42:57.181Z,0.60
2022-08-05T12:45:49.642Z,0.93
2022-08-05T12:48:27.509Z,0.52
2022-08-05T12:52:11.210Z,0.70
2022-08-05T12:54:04.605Z,0.60
2022-08-05T12:56:54.029Z,0.68
2022-08-05T13:00:08.915Z,0.50
2022-08-05T13:02:21.333Z,0.68
2022-08-05T13:04:55.896Z,1.00
2022-08-05T13:07:55.934Z,0.50
2022-08-05T13:10:19.884Z,0.60
2022-08-05T13:12:57.518Z,0.60
2022-08-05T13:15:35.932Z,0.43
2022-08-05T13:18:18.826Z,0.43
2022-08-05T13:20:50.083Z,0.50
2022-08-05T13:23:22.410Z,0.50
2022-08-05T13:25:59.682Z,0.52
2022-08-05T13:28:29.073Z,0.60
2022-08-05T13:31:00.015Z,0.55
2022-08-05T13:34:23.836Z,0.50
2022-08-05T13:36:27.133Z,0.63
2022-08-05T13:38:57.267Z,0.70
2022-08-05T13:41:36.107Z,0.80
2022-08-05T13:44:05.208Z,0.80
2022-08-05T13:46:37.702Z,0.60
2022-08-05T13:49:12.676Z,0.70
2022-08-05T13:51:46.096Z,0.60
2022-08-05T13:54:21.118Z,0.57
2022-08-05T13:56:54.664Z,0.60
2022-08-05T13:59:24.853Z,0.40
2022-08-05T14:02:00.008Z,0.73
2022-08-05T14:04:51.703Z,0.40
2022-08-05T14:08:00.228Z,0.40
2022-08-05T14:10:28.959Z,0.60
2022-08-05T14:12:59.846Z,0.60
2022-08-05T14:16:09.088Z,0.50
2022-08-05T14:18:18.321Z,0.75
2022-08-05T14:20:48.170Z,0.60
2022-08-05T14:23:23.862Z,0.55
2022-08-05T14:25:58.795Z,0.55
2022-08-05T14:28:28.797Z,0.60
2022-08-05T14:31:01.509Z,0.65
2022-08-05T14:33:32.439Z,0.40
2022-08-05T14:36:21.683Z,0.77
2022-08-05T14:38:51.200Z,0.70
2022-08-05T14:41:18.960Z,0.50
2022-08-05T14:44:02.435Z,0.60
2022-08-05T14:46:35.067Z,0.50
2022-08-05T14:49:07.571Z,0.65
2022-08-05T14:51:38.877Z,0.43
2022-08-05T14:54:29.894Z,0.32
2022-08-05T14:56:59.881Z,0.57
2022-08-05T14:59:29.551Z,0.63
2022-08-05T15:02:15.774Z,0.40
2022-08-05T15:04:47.692Z,0.50
2022-08-05T15:08:06.188Z,0.47
2022-08-05T15:10:03.952Z,0.70
2022-08-05T15:12:51.620Z,0.50
2022-08-05T15:15:55.323Z,0.43
2022-08-05T15:18:07.857Z,0.65
2022-08-05T15:20:37.541Z,0.68
2022-08-05T15:23:11.143Z,0.60
2022-08-05T15:25:53.777Z,0.45
2022-08-05T15:28:27.426Z,0.60
2022-08-05T15:30:56.488Z,0.57
2022-08-05T15:34:05.630Z,0.43
2022-08-05T15:36:17.798Z,0.50
2022-08-05T15:40:59.157Z,0.77
2022-08-05T15:41:56.171Z,0.68
2022-08-05T15:44:30.217Z,0.80
2022-08-05T15:47:04.271Z,0.77
2022-08-05T15:49:48.216Z,0.50
2022-08-05T15:52:51.647Z,0.65
2022-08-05T15:55:16.122Z,0.50
2022-08-05T15:57:45.128Z,0.60
2022-08-05T16:00:16.900Z,0.40
2022-08-05T16:02:54.158Z,0.40
2022-08-05T16:05:22.834Z,0.50
2022-08-05T16:07:57.218Z,0.60
2022-08-05T16:10:25.603Z,0.50
2022-08-05T16:12:56.124Z,0.65
2022-08-05T16:15:24.361Z,0.40
2022-08-05T16:18:00.195Z,0.70
2022-08-05T16:20:27.920Z,0.50
2022-08-05T16:22:55.606Z,0.60
2022-08-05T16:25:34.031Z,0.65
2022-08-05T16:28:06.056Z,0.47
2022-08-05T16:30:36.087Z,0.68
2022-08-05T16:33:04.007Z,0.60
2022-08-05T16:35:33.628Z,0.65
2022-08-05T16:38:24.606Z,0.60
2022-08-05T16:41:00.194Z,0.50
2022-08-05T16:43:32.212Z,0.32
2022-08-05T16:46:12.818Z,0.60
2022-08-05T16:48:50.485Z,0.60
2022-08-05T16:51:18.823Z,0.60
2022-08-05T16:54:02.764Z,0.40
2022-08-05T16:56:35.351Z,0.57
2022-08-05T16:59:10.619Z,0.50
2022-08-05T17:01:53.576Z,0.50
2022-08-05T17:04:28.266Z,0.50
2022-08-05T17:07:01.080Z,0.90
2022-08-05T17:09:31.015Z,0.70
2022-08-05T17:12:18.393Z,0.60
2022-08-05T17:14:50.315Z,0.57
2022-08-05T17:17:17.871Z,0.60
2022-08-05T17:19:47.223Z,0.50
2022-08-05T17:22:25.571Z,1.00
2022-08-05T17:24:57.640Z,0.50
2022-08-05T17:27:33.607Z,0.70
2022-08-05T17:30:18.757Z,0.73
2022-08-05T17:32:55.251Z,0.80
2022-08-05T17:35:23.008Z,0.60
2022-08-05T17:37:50.691Z,0.75
2022-08-05T17:40:22.468Z,0.68
2022-08-05T17:42:52.983Z,0.98
2022-08-05T17:45:24.875Z,0.45
2022-08-05T17:47:56.097Z,0.70
2022-08-05T17:50:28.771Z,0.70
2022-08-05T17:53:01.531Z,0.68
2022-08-05T17:55:38.449Z,0.60
2022-08-05T17:58:14.550Z,0.60
2022-08-05T18:00:50.765Z,0.60
2022-08-05T18:06:11.535Z,0.70
2022-08-05T18:08:44.490Z,0.60
2022-08-05T18:11:23.135Z,0.63
2022-08-05T18:13:52.899Z,1.10
2022-08-05T18:16:21.583Z,0.60
2022-08-05T18:18:49.951Z,0.75
2022-08-05T18:21:21.233Z,0.60
2022-08-05T18:23:53.690Z,0.90
2022-08-05T18:26:27.658Z,0.80
2022-08-05T18:28:58.228Z,0.75
2022-08-05T18:31:33.902Z,0.80
2022-08-05T18:34:06.154Z,0.77
2022-08-05T18:36:35.505Z,1.00
2022-08-05T18:39:22.349Z,0.90
2022-08-05T18:42:01.179Z,1.10
2022-08-05T18:44:49.239Z,0.98
2022-08-05T18:47:26.603Z,1.00
2022-08-05T18:52:50.948Z,1.00
2022-08-05T18:55:21.544Z,1.10
2022-08-05T18:57:53.902Z,1.10
2022-08-05T19:00:30.679Z,0.90
2022-08-05T19:03:03.796Z,0.82
2022-08-05T19:06:13.041Z,0.98
2022-08-05T19:08:30.925Z,0.93
2022-08-05T19:10:59.642Z,1.20
2022-08-05T19:13:35.956Z,1.13
2022-08-05T19:16:25.173Z,0.95
2022-08-05T19:21:36.213Z,1.58
2022-08-05T19:24:12.203Z,1.27
2022-08-05T19:26:43.882Z,0.77
2022-08-05T19:29:26.638Z,1.15
2022-08-05T19:32:17.729Z,0.82
2022-08-05T19:34:55.317Z,0.90
2022-08-05T19:37:30.103Z,1.08
2022-08-05T19:40:12.639Z,0.80
2022-08-05T19:42:42.842Z,1.05
2022-08-05T19:45:30.578Z,0.77
2022-08-05T19:48:06.114Z,0.90
2022-08-05T19:50:34.900Z,0.88
2022-08-05T19:53:10.706Z,0.90
2022-08-05T19:56:14.879Z,1.00
2022-08-05T19:58:29.211Z,1.02
2022-08-05T20:00:58.467Z,1.08
2022-08-05T20:03:26.457Z,1.25
2022-08-05T20:05:56.664Z,1.17
2022-08-05T20:08:24.815Z,1.10
2022-08-05T20:10:53.652Z,0.95
2022-08-05T20:13:54.582Z,1.30
2022-08-05T20:16:09.983Z,1.27
2022-08-05T20:18:38.580Z,1.08
2022-08-05T20:21:07.478Z,1.38
2022-08-05T20:23:40.079Z,0.90
2022-08-05T20:26:24.851Z,1.23
2022-08-05T20:28:57.339Z,1.05
2022-08-05T20:31:37.323Z,1.02
2022-08-05T20:34:11.628Z,1.40
2022-08-05T20:36:43.181Z,1.08
2022-08-05T20:39:16.466Z,1.00
2022-08-05T20:41:46.716Z,1.20
2022-08-05T20:44:30.521Z,1.30
2022-08-05T20:47:05.305Z,1.05
2022-08-05T20:49:39.532Z,1.30
2022-08-05T20:52:08.618Z,0.85
2022-08-05T20:54:43.631Z,0.93
2022-08-05T20:57:42.018Z,1.10
2022-08-05T21:00:35.048Z,1.52
2022-08-05T21:03:07.588Z,1.45
2022-08-05T21:05:54.060Z,1.40
2022-08-05T21:08:28.053Z,1.40
2022-08-05T21:11:10.067Z,1.00
2022-08-05T21:13:47.462Z,1.20
2022-08-05T21:16:30.169Z,1.55
2022-08-05T21:19:01.995Z,1.90
2022-08-05T21:21:44.455Z,1.52
2022-08-05T21:24:19.657Z,1.10
2022-08-05T21:26:57.909Z,1.10
2022-08-05T21:29:32.214Z,1.20
2022-08-05T21:32:02.286Z,1.55
2022-08-05T21:34:31.468Z,1.73
2022-08-05T21:36:59.377Z,1.65
2022-08-05T21:39:27.925Z,1.30
2022-08-05T21:42:01.538Z,1.65
2022-08-05T21:44:31.734Z,1.52
2022-08-05T21:47:00.422Z,1.98
2022-08-05T21:49:59.367Z,1.95
2022-08-05T21:52:27.467Z,1.88
2022-08-05T21:55:06.935Z,1.90
2022-08-05T21:57:42.653Z,1.52
2022-08-05T22:00:12.820Z,1.92
2022-08-05T22:02:42.665Z,1.90
2022-08-05T22:05:12.409Z,1.90
2022-08-05T22:07:59.116Z,1.80
2022-08-05T22:10:28.168Z,1.67
2022-08-05T22:12:59.001Z,1.95
2022-08-05T22:16:01.397Z,2.00
2022-08-05T22:18:25.848Z,1.88
2022-08-05T22:20:53.747Z,1.80
2022-08-05T22:24:02.269Z,2.00
2022-08-05T22:26:49.608Z,2.38
2022-08-05T22:29:26.470Z,2.70
2022-08-05T22:31:59.376Z,2.17
2022-08-05T22:34:30.951Z,2.30
2022-08-05T22:36:59.231Z,2.35
2022-08-05T22:39:33.654Z,2.38
2022-08-05T22:44:39.479Z,2.70
2022-08-05T22:47:07.913Z,2.50
2022-08-05T22:50:18.361Z,2.40
2022-08-05T22:52:32.550Z,2.40
2022-08-05T22:55:04.469Z,2.28
2022-08-05T22:57:51.955Z,2.50
2022-08-05T23:00:24.277Z,3.05
2022-08-05T23:02:54.153Z,3.15
2022-08-05T23:05:22.880Z,2.70
2022-08-05T23:07:51.933Z,2.70
2022-08-05T23:10:23.591Z,2.42
2022-08-05T23:12:55.533Z,2.90
2022-08-05T23:15:30.025Z,2.80
2022-08-05T23:18:11.355Z,2.60
2022-08-05T23:20:39.537Z,2.47
2022-08-05T23:23:08.522Z,2.75
2022-08-05T23:25:52.477Z,2.45
2022-08-05T23:28:23.031Z,2.90
2022-08-05T23:30:53.968Z,2.33
2022-08-05T23:33:26.484Z,3.15
2022-08-05T23:36:11.167Z,2.53
2022-08-05T23:38:42.780Z,2.65
2022-08-05T23:41:11.144Z,3.15
2022-08-05T23:44:03.161Z,2.53
2022-08-05T23:46:40.632Z,3.08
2022-08-05T23:49:16.927Z,2.90
2022-08-05T23:52:05.760Z,2.78
2022-08-05T23:54:38.422Z,3.08
2022-08-05T23:57:08.080Z,2.72
